KTCC/TCC METAR and TAF weather

Enter ICAO airport designator
Station Type Date Time Source
KTCC METAR 2019/04/19 09:53 UTC NOAA

KTCC 190953Z AUTO 32004KT 10SM CLR 06/02 A3020 RMK AO2 SLP200 T00560022


Station Type Date Time Source
KTCC Decoded METAR 2019/04/19 09:53 UTC NOAA

TUCUMCARI MUNICIPAL AIRPORT , NM, United States (KTCC) 35-11N 103-36W 1235M
Apr 19, 2019 - 05:53 AM EDT / 2019.04.19 0953 UTC
Wind: from the NW (320 degrees) at 5 MPH (4 KT):0
Visibility: 10 mile(s):0
Sky conditions: clear
Temperature: 42.1 F (5.6 C)
Dew Point: 36.0 F (2.2 C)
Relative Humidity: 78%
Pressure (altimeter): 30.2 in. Hg (1022 hPa)
ob: KTCC 190953Z AUTO 32004KT 10SM CLR 06/02 A3020 RMK AO2 SLP200 T00560022
cycle: 10

Station Type Date Time Source
KTCC TAF 2019/04/19 06:22 UTC NOAA

TAF KTCC 190520Z 1906/2006 06010KT P6SM SKC
FM190900 34007KT P6SM SKC
FM191500 23012KT P6SM SKC
FM200100 19006KT P6SM FEW250

Example: see airport list